createdAt,value
2022-11-20T06:56:18.324Z,79.58
2022-11-20T06:59:05.058Z,79.93
2022-11-20T07:01:51.794Z,79.99
2022-11-20T07:04:38.527Z,79.83
2022-11-20T07:07:25.576Z,79.52
2022-11-20T07:10:12.305Z,79.91
2022-11-20T07:12:59.110Z,80.38
2022-11-20T07:15:46.436Z,79.77
2022-11-20T07:18:33.235Z,79.77
2022-11-20T07:21:25.147Z,79.81
2022-11-20T07:24:11.871Z,79.80
2022-11-20T07:26:59.308Z,80.04
2022-11-20T07:29:46.048Z,79.87
2022-11-20T07:32:32.727Z,80.19
2022-11-20T07:35:19.432Z,80.06
2022-11-20T07:38:06.179Z,79.94
2022-11-20T07:40:52.994Z,80.01
2022-11-20T07:43:41.412Z,79.87
2022-11-20T07:46:28.540Z,79.39
2022-11-20T07:49:15.237Z,80.13
2022-11-20T07:52:04.989Z,79.89
2022-11-20T07:54:52.135Z,79.73
2022-11-20T07:57:38.835Z,80.08
2022-11-20T08:00:26.872Z,80.13
2022-11-20T08:03:13.750Z,80.35
2022-11-20T08:06:00.461Z,80.11
2022-11-20T08:08:47.460Z,80.36
2022-11-20T08:11:32.554Z,80.09
2022-11-20T08:14:34.323Z,79.39
2022-11-20T08:17:21.009Z,80.35
2022-11-20T08:20:07.723Z,80.22
2022-11-20T08:22:54.456Z,80.04
2022-11-20T08:25:41.167Z,80.30
2022-11-20T08:28:30.275Z,80.11
2022-11-20T08:31:21.544Z,79.96
2022-11-20T08:34:09.839Z,79.83
2022-11-20T08:36:57.748Z,80.00
2022-11-20T08:39:44.455Z,79.79
2022-11-20T08:42:31.263Z,80.21
2022-11-20T08:45:17.959Z,80.02
2022-11-20T08:48:05.776Z,80.09
2022-11-20T08:50:52.616Z,80.24
2022-11-20T08:53:39.314Z,80.29
2022-11-20T08:56:26.981Z,80.15
2022-11-20T08:59:31.328Z,80.18
2022-11-20T09:02:20.460Z,80.26
2022-11-20T09:05:07.248Z,80.17
2022-11-20T09:07:54.108Z,80.25
2022-11-20T09:10:40.841Z,79.98
2022-11-20T09:13:27.817Z,80.50
2022-11-20T09:16:22.694Z,80.04
2022-11-20T09:19:34.714Z,80.50
2022-11-20T09:22:17.987Z,80.52
2022-11-20T09:25:04.686Z,80.03
2022-11-20T09:27:51.418Z,80.50
2022-11-20T09:30:38.117Z,80.39
2022-11-20T09:33:26.807Z,80.85
2022-11-20T09:36:13.718Z,80.33
2022-11-20T09:39:00.453Z,80.72
2022-11-20T09:41:55.040Z,80.31
2022-11-20T09:45:03.512Z,80.26
2022-11-20T09:48:16.634Z,80.43
2022-11-20T09:51:30.523Z,80.67
2022-11-20T09:54:25.929Z,80.35
2022-11-20T09:57:20.511Z,80.34
2022-11-20T10:00:21.875Z,80.67
2022-11-20T10:03:24.051Z,80.31
2022-11-20T10:06:20.463Z,80.24
2022-11-20T10:09:34.875Z,80.55
2022-11-20T10:13:09.560Z,80.47
2022-11-20T10:16:41.340Z,80.53
2022-11-20T10:19:55.829Z,80.60
2022-11-20T10:22:52.003Z,80.60
2022-11-20T10:26:03.843Z,80.75
2022-11-20T10:29:02.416Z,80.81
2022-11-20T10:31:55.562Z,80.84
2022-11-20T10:34:50.063Z,80.70
2022-11-20T10:37:38.566Z,80.75
2022-11-20T10:40:43.239Z,80.71
2022-11-20T10:43:35.987Z,80.71
2022-11-20T10:46:33.424Z,80.73
2022-11-20T10:49:20.423Z,81.02
2022-11-20T10:52:22.064Z,80.44
2022-11-20T10:55:15.107Z,81.03
2022-11-20T10:58:01.846Z,80.71
2022-11-20T11:00:52.291Z,81.12
2022-11-20T11:03:51.703Z,80.84
2022-11-20T11:07:00.641Z,81.01
2022-11-20T11:09:59.983Z,81.04
2022-11-20T11:12:49.568Z,80.47
2022-11-20T11:16:00.347Z,80.77
2022-11-20T11:18:52.286Z,80.66
2022-11-20T11:21:45.084Z,80.75
2022-11-20T11:24:47.555Z,80.84
2022-11-20T11:27:35.912Z,80.63
2022-11-20T11:30:34.118Z,80.94
2022-11-20T11:33:25.967Z,80.83
2022-11-20T11:36:15.850Z,80.92
2022-11-20T11:39:03.963Z,80.44
2022-11-20T11:41:54.585Z,80.96
2022-11-20T11:44:47.483Z,80.89
2022-11-20T11:47:47.044Z,80.88
2022-11-20T11:50:33.723Z,81.46
2022-11-20T11:53:33.182Z,81.13
2022-11-20T11:56:28.598Z,80.98
2022-11-20T11:59:19.097Z,81.66
2022-11-20T12:02:13.454Z,81.35
2022-11-20T12:05:44.794Z,81.24
2022-11-20T12:08:46.553Z,81.08
2022-11-20T12:12:09.896Z,81.22
2022-11-20T12:15:03.638Z,80.59
2022-11-20T12:17:50.597Z,81.36
2022-11-20T12:20:37.915Z,81.45
2022-11-20T12:23:42.944Z,81.21
2022-11-20T12:26:48.347Z,81.13
2022-11-20T12:29:40.920Z,81.17
2022-11-20T12:32:36.794Z,81.23
2022-11-20T12:35:39.272Z,81.29
2022-11-20T12:38:41.156Z,81.14
2022-11-20T12:42:04.071Z,81.20
2022-11-20T12:45:08.323Z,81.10
2022-11-20T12:47:58.149Z,81.22
2022-11-20T12:51:15.199Z,81.17
2022-11-20T12:54:45.570Z,81.25
2022-11-20T12:57:57.793Z,80.91
2022-11-20T13:00:45.661Z,81.39
2022-11-20T13:04:00.147Z,81.31
2022-11-20T13:06:47.141Z,81.18
2022-11-20T13:09:38.278Z,81.59
2022-11-20T13:12:33.308Z,81.58
2022-11-20T13:15:30.491Z,81.19
2022-11-20T13:18:22.547Z,81.24
2022-11-20T13:21:09.249Z,81.28
2022-11-20T13:23:55.947Z,81.41
2022-11-20T13:26:44.386Z,81.57
2022-11-20T13:29:39.300Z,81.48
2022-11-20T13:32:38.451Z,81.52
2022-11-20T13:35:25.808Z,81.26
2022-11-20T13:38:35.559Z,81.20
2022-11-20T13:41:25.156Z,80.95
2022-11-20T13:44:13.178Z,81.35
2022-11-20T13:47:05.566Z,81.16
2022-11-20T13:50:12.000Z,81.35
2022-11-20T13:53:21.379Z,81.32
2022-11-20T13:56:17.344Z,81.38
2022-11-20T13:59:30.615Z,81.32
2022-11-20T14:02:17.446Z,81.35
2022-11-20T14:05:07.703Z,81.18
2022-11-20T14:08:02.419Z,81.39
2022-11-20T14:10:50.404Z,81.52
2022-11-20T14:13:40.514Z,81.43
2022-11-20T14:16:27.240Z,81.42
2022-11-20T14:19:15.596Z,81.29
2022-11-20T14:22:02.378Z,81.48
2022-11-20T14:24:49.115Z,81.61
2022-11-20T14:27:44.737Z,81.60
2022-11-20T14:30:34.835Z,81.64
2022-11-20T14:33:24.369Z,81.29
2022-11-20T14:36:13.928Z,81.61
2022-11-20T14:39:00.671Z,81.38
2022-11-20T14:41:47.539Z,81.64
2022-11-20T14:44:34.336Z,81.62
2022-11-20T14:47:23.156Z,81.70
2022-11-20T14:50:11.228Z,82.20
2022-11-20T14:52:58.221Z,81.43
2022-11-20T14:55:56.192Z,81.37
2022-11-20T14:58:52.004Z,81.36
2022-11-20T15:01:47.707Z,81.59
2022-11-20T15:04:34.442Z,81.74
2022-11-20T15:07:21.963Z,81.53
2022-11-20T15:10:08.726Z,81.59
2022-11-20T15:12:59.630Z,81.64
2022-11-20T15:15:53.590Z,81.87
2022-11-20T15:18:43.815Z,81.69
2022-11-20T15:21:33.536Z,81.24
2022-11-20T15:24:20.369Z,81.71
2022-11-20T15:27:07.194Z,81.50
2022-11-20T15:29:53.912Z,81.24
2022-11-20T15:32:40.663Z,81.38
2022-11-20T15:35:27.826Z,81.30
2022-11-20T15:38:14.550Z,81.31
2022-11-20T15:41:01.496Z,81.37
2022-11-20T15:43:48.217Z,81.24
2022-11-20T15:46:44.814Z,81.56
2022-11-20T15:49:37.019Z,81.67
2022-11-20T15:52:23.791Z,81.46
2022-11-20T15:55:10.608Z,80.99
2022-11-20T15:57:57.319Z,81.72
2022-11-20T16:00:44.023Z,81.47
2022-11-20T16:03:35.595Z,81.67
2022-11-20T16:06:22.287Z,81.79
2022-11-20T16:09:08.997Z,81.72
2022-11-20T16:11:56.273Z,81.70
2022-11-20T16:14:41.541Z,81.78
2022-11-20T16:17:28.267Z,81.77
2022-11-20T16:20:14.959Z,81.41
2022-11-20T16:23:01.690Z,81.78
2022-11-20T16:25:48.770Z,81.61
2022-11-20T16:28:35.943Z,81.17
2022-11-20T16:31:30.501Z,81.59
2022-11-20T16:34:19.234Z,81.91
2022-11-20T16:37:05.997Z,82.01
2022-11-20T16:39:52.694Z,81.58
2022-11-20T16:42:39.551Z,81.78
2022-11-20T16:45:31.308Z,81.44
2022-11-20T16:48:20.394Z,81.92
2022-11-20T16:51:15.974Z,81.67
2022-11-20T16:54:03.774Z,81.65
2022-11-20T16:56:50.497Z,81.07
2022-11-20T16:59:37.508Z,81.88
2022-11-20T17:02:24.204Z,81.98
2022-11-20T17:05:10.935Z,81.53
2022-11-20T17:07:57.637Z,81.63
2022-11-20T17:10:44.422Z,81.75
2022-11-20T17:13:33.927Z,82.07
2022-11-20T17:16:25.413Z,81.56
2022-11-20T17:19:14.775Z,81.91
2022-11-20T17:22:01.801Z,81.98
2022-11-20T17:24:48.562Z,81.68
2022-11-20T17:27:35.344Z,81.73
2022-11-20T17:30:22.128Z,81.93
2022-11-20T17:33:08.825Z,81.96
2022-11-20T17:35:56.818Z,81.68
2022-11-20T17:38:43.943Z,81.83
2022-11-20T17:41:39.155Z,81.94
2022-11-20T17:44:26.070Z,81.95
2022-11-20T17:47:12.949Z,81.89
2022-11-20T17:49:59.685Z,81.70
2022-11-20T17:52:46.550Z,81.88
2022-11-20T17:55:33.276Z,81.46
2022-11-20T17:58:20.331Z,81.53
2022-11-20T18:01:07.090Z,80.76
2022-11-20T18:03:53.983Z,81.24
2022-11-20T18:06:43.949Z,81.71
2022-11-20T18:09:31.441Z,81.54
2022-11-20T18:12:18.150Z,81.69
2022-11-20T18:15:04.870Z,81.36
2022-11-20T18:17:51.575Z,81.62
2022-11-20T18:20:40.179Z,81.73
2022-11-20T18:23:27.052Z,81.62
2022-11-20T18:26:20.262Z,81.86
2022-11-20T18:29:07.540Z,81.78
2022-11-20T18:31:54.508Z,81.73
2022-11-20T18:34:41.235Z,81.81
2022-11-20T18:37:28.027Z,81.80
2022-11-20T18:40:16.192Z,81.21
2022-11-20T18:43:01.355Z,80.73
2022-11-20T18:45:48.087Z,81.29
2022-11-20T18:48:35.019Z,81.94
2022-11-20T18:51:28.254Z,81.91
2022-11-20T18:54:15.425Z,81.85
2022-11-20T18:57:02.183Z,81.71
2022-11-20T18:59:49.005Z,81.66
2022-11-20T19:02:42.183Z,81.25
2022-11-20T19:05:31.887Z,81.35
2022-11-20T19:08:18.624Z,81.11
2022-11-20T19:11:05.327Z,81.63
2022-11-20T19:13:53.292Z,81.55
2022-11-20T19:16:41.000Z,81.74
2022-11-20T19:19:27.886Z,81.31
2022-11-20T19:22:14.811Z,81.47
2022-11-20T19:25:01.820Z,81.64
2022-11-20T19:27:48.593Z,81.66
2022-11-20T19:30:35.585Z,81.30
2022-11-20T19:33:22.335Z,81.77
2022-11-20T19:36:09.071Z,81.27
2022-11-20T19:38:56.443Z,81.39
2022-11-20T19:41:51.555Z,81.63
2022-11-20T19:44:38.384Z,81.71
2022-11-20T19:47:45.962Z,81.21
2022-11-20T19:50:31.853Z,81.31
2022-11-20T19:53:18.584Z,81.16
2022-11-20T19:56:19.264Z,81.63
2022-11-20T19:59:06.049Z,81.48
2022-11-20T20:01:52.826Z,81.61
2022-11-20T20:04:39.559Z,81.42
2022-11-20T20:07:26.312Z,81.65
2022-11-20T20:10:13.104Z,81.50
2022-11-20T20:13:00.042Z,81.22
2022-11-20T20:15:46.763Z,81.64
2022-11-20T20:18:33.505Z,81.03
2022-11-20T20:21:28.958Z,80.98
2022-11-20T20:24:16.540Z,81.14
2022-11-20T20:27:03.332Z,81.39
2022-11-20T20:29:50.116Z,81.62
2022-11-20T20:32:36.842Z,81.87
2022-11-20T20:35:24.506Z,81.40
2022-11-20T20:38:11.243Z,81.11
2022-11-20T20:40:58.172Z,81.30
2022-11-20T20:43:45.032Z,81.56
2022-11-20T20:46:31.725Z,81.48
2022-11-20T20:49:18.621Z,81.72
2022-11-20T20:52:05.359Z,81.13
2022-11-20T20:54:52.082Z,81.77
2022-11-20T20:57:38.789Z,81.43
2022-11-20T21:00:26.611Z,81.52
2022-11-20T21:03:13.351Z,81.29
2022-11-20T21:06:00.065Z,81.55
2022-11-20T21:08:46.915Z,81.39
2022-11-20T21:11:36.827Z,81.40
2022-11-20T21:14:23.776Z,81.35
2022-11-20T21:17:14.975Z,81.34
2022-11-20T21:20:02.114Z,81.33
2022-11-20T21:22:48.827Z,81.38
2022-11-20T21:25:35.566Z,81.26
2022-11-20T21:28:22.318Z,80.75
2022-11-20T21:31:09.059Z,80.92
2022-11-20T21:33:57.760Z,81.49
2022-11-20T21:36:47.148Z,81.44
2022-11-20T21:39:35.023Z,81.22
2022-11-20T21:42:21.763Z,81.01
2022-11-20T21:45:08.462Z,80.95
2022-11-20T21:47:55.156Z,81.64
2022-11-20T21:50:41.862Z,81.04
2022-11-20T21:53:28.715Z,81.34
2022-11-20T21:56:20.077Z,81.11
2022-11-20T21:59:07.803Z,80.78
2022-11-20T22:01:54.868Z,80.82
2022-11-20T22:04:41.635Z,81.14
2022-11-20T22:07:28.532Z,80.80
2022-11-20T22:10:18.495Z,81.31
2022-11-20T22:13:05.631Z,81.15
2022-11-20T22:16:00.616Z,81.45
2022-11-20T22:18:47.712Z,80.83
2022-11-20T22:21:35.426Z,81.49
2022-11-20T22:24:22.605Z,81.27
2022-11-20T22:27:10.147Z,81.27
2022-11-20T22:29:56.832Z,81.70
2022-11-20T22:32:43.534Z,81.50
2022-11-20T22:35:30.238Z,81.09
2022-11-20T22:38:16.939Z,81.08
2022-11-20T22:41:06.487Z,81.15
2022-11-20T22:43:53.783Z,81.09
2022-11-20T22:46:42.219Z,81.49
2022-11-20T22:49:29.163Z,80.94
2022-11-20T22:52:15.863Z,81.12
2022-11-20T22:55:02.630Z,81.45
2022-11-20T22:57:49.537Z,80.90
2022-11-20T23:00:36.855Z,80.67
2022-11-20T23:03:23.565Z,81.63
2022-11-20T23:06:10.349Z,81.34
2022-11-20T23:08:58.746Z,81.66
2022-11-20T23:11:49.899Z,81.09
2022-11-20T23:14:36.638Z,80.82
2022-11-20T23:17:23.423Z,81.08
2022-11-20T23:20:10.154Z,81.88
2022-11-20T23:22:56.900Z,81.09
2022-11-20T23:25:43.610Z,81.62
2022-11-20T23:28:30.678Z,81.48
2022-11-20T23:31:18.170Z,80.93
2022-11-20T23:34:05.920Z,81.38
2022-11-20T23:36:52.726Z,81.26
2022-11-20T23:39:39.471Z,81.43
2022-11-20T23:42:26.158Z,81.06
2022-11-20T23:45:12.891Z,81.82
2022-11-20T23:47:59.621Z,81.20
2022-11-20T23:50:46.315Z,80.98
2022-11-20T23:53:33.699Z,80.71
2022-11-20T23:56:23.478Z,80.84
2022-11-20T23:59:10.450Z,81.76
